createdAt,value
2023-02-08T00:01:10.512Z,4.47
2023-02-08T00:03:43.453Z,4.48
2023-02-08T00:06:21.641Z,4.46
2023-02-08T00:08:55.170Z,4.39
2023-02-08T00:11:28.008Z,4.49
2023-02-08T00:14:00.770Z,4.47
2023-02-08T00:16:34.864Z,4.44
2023-02-08T00:19:07.787Z,4.45
2023-02-08T00:21:40.756Z,4.38
2023-02-08T00:24:13.486Z,4.35
2023-02-08T00:26:46.102Z,4.38
2023-02-08T00:29:18.937Z,4.35
2023-02-08T00:31:52.962Z,4.31
2023-02-08T00:34:26.272Z,4.32
2023-02-08T00:36:58.959Z,4.29
2023-02-08T00:39:32.156Z,4.28
2023-02-08T00:42:05.257Z,4.31
2023-02-08T00:44:38.727Z,4.25
2023-02-08T00:47:13.162Z,4.24
2023-02-08T00:49:45.883Z,4.22
2023-02-08T00:52:20.515Z,4.25
2023-02-08T00:54:53.441Z,4.16
2023-02-08T00:57:26.162Z,4.15
2023-02-08T00:59:58.848Z,4.15
2023-02-08T01:02:33.013Z,4.13
2023-02-08T01:05:06.812Z,4.18
2023-02-08T01:07:39.896Z,4.18
2023-02-08T01:10:12.990Z,4.15
2023-02-08T01:12:47.044Z,4.12
2023-02-08T01:15:20.000Z,4.14
2023-02-08T01:17:56.346Z,4.06
2023-02-08T01:20:30.108Z,4.09
2023-02-08T01:23:03.291Z,4.08
2023-02-08T01:25:36.074Z,4.07
2023-02-08T01:28:08.935Z,4.09
2023-02-08T01:30:42.334Z,4.09
2023-02-08T01:33:16.943Z,4.12
2023-02-08T01:35:52.142Z,4.10
2023-02-08T01:38:25.091Z,4.08
2023-02-08T01:40:58.109Z,4.05
2023-02-08T01:43:32.595Z,4.05
2023-02-08T01:46:05.926Z,4.07
2023-02-08T01:48:42.227Z,4.00
2023-02-08T01:51:25.622Z,3.98
2023-02-08T01:54:01.188Z,3.97
2023-02-08T01:56:37.176Z,3.93
2023-02-08T01:59:14.737Z,3.91
2023-02-08T02:01:49.801Z,3.89
2023-02-08T02:04:24.149Z,3.89
2023-02-08T02:07:00.217Z,3.82
2023-02-08T02:09:41.009Z,3.84
2023-02-08T02:12:14.994Z,3.85
2023-02-08T02:14:48.378Z,3.82
2023-02-08T02:17:21.678Z,3.82
2023-02-08T02:20:04.344Z,3.76
2023-02-08T02:23:13.210Z,3.79
2023-02-08T02:26:26.144Z,3.76
2023-02-08T02:29:27.520Z,3.78
2023-02-08T02:32:12.480Z,3.73
2023-02-08T02:34:51.012Z,3.74
2023-02-08T02:37:41.959Z,3.70
2023-02-08T02:40:22.953Z,3.70
2023-02-08T02:43:21.584Z,3.69
2023-02-08T02:46:00.823Z,3.67
2023-02-08T02:48:42.418Z,3.60
2023-02-08T02:51:21.391Z,3.64
2023-02-08T02:53:57.726Z,3.58
2023-02-08T02:56:34.607Z,3.55
2023-02-08T02:59:09.755Z,3.57
2023-02-08T03:04:52.083Z,3.53
2023-02-08T03:07:40.994Z,3.55
2023-02-08T03:10:25.765Z,3.58
2023-02-08T03:13:05.599Z,3.55
2023-02-08T03:15:47.328Z,3.55
2023-02-08T03:18:31.570Z,3.54
2023-02-08T03:21:13.019Z,3.47
2023-02-08T03:23:54.143Z,3.44
2023-02-08T03:26:36.850Z,3.44
2023-02-08T03:29:16.546Z,3.44
2023-02-08T03:31:55.270Z,3.43
2023-02-08T03:34:32.829Z,3.37
2023-02-08T03:37:11.384Z,3.43
2023-02-08T03:39:46.436Z,3.40
2023-02-08T03:42:24.058Z,3.35
2023-02-08T03:45:01.363Z,3.35
2023-02-08T03:47:38.611Z,3.31
2023-02-08T03:50:17.377Z,3.32
2023-02-08T03:52:53.378Z,3.30
2023-02-08T03:55:30.584Z,3.30
2023-02-08T03:58:07.662Z,3.32
2023-02-08T04:00:44.060Z,3.31
2023-02-08T04:03:21.072Z,3.32
2023-02-08T04:05:54.064Z,3.34
2023-02-08T04:08:28.282Z,3.28
2023-02-08T04:11:01.412Z,3.31
2023-02-08T04:13:34.055Z,3.31
2023-02-08T04:16:07.379Z,3.28
2023-02-08T04:18:40.132Z,3.30
2023-02-08T04:21:12.962Z,3.30
2023-02-08T04:23:46.881Z,3.28
2023-02-08T04:26:19.687Z,3.32
2023-02-08T04:28:52.352Z,3.21
2023-02-08T04:31:25.120Z,3.21
2023-02-08T04:33:57.918Z,3.20
2023-02-08T04:36:31.034Z,3.22
2023-02-08T04:39:05.194Z,3.20
2023-02-08T04:41:38.115Z,3.15
2023-02-08T04:44:10.909Z,3.16
2023-02-08T04:46:43.657Z,3.14
2023-02-08T04:49:16.553Z,3.10
2023-02-08T04:51:49.332Z,3.16
2023-02-08T04:54:23.172Z,3.04
2023-02-08T04:56:56.404Z,3.09
2023-02-08T04:59:29.318Z,3.12
2023-02-08T05:02:02.000Z,3.11
2023-02-08T05:04:35.125Z,3.05
2023-02-08T05:07:07.832Z,3.08
2023-02-08T05:09:41.854Z,3.11
2023-02-08T05:12:14.714Z,3.05
2023-02-08T05:14:47.238Z,3.11
2023-02-08T05:17:20.220Z,3.09
2023-02-08T05:19:54.984Z,3.09
2023-02-08T05:22:27.777Z,3.08
2023-02-08T05:25:01.913Z,3.05
2023-02-08T05:27:35.464Z,3.14
2023-02-08T05:30:09.478Z,3.12
2023-02-08T05:32:42.358Z,3.15
2023-02-08T05:35:14.886Z,3.08
2023-02-08T05:37:47.681Z,3.12
2023-02-08T05:40:21.733Z,3.09
2023-02-08T05:42:54.493Z,3.05
2023-02-08T05:45:27.229Z,3.02
2023-02-08T05:47:59.760Z,3.05
2023-02-08T05:50:32.578Z,3.05
2023-02-08T05:53:05.464Z,3.00
2023-02-08T05:55:39.735Z,3.03
2023-02-08T05:58:13.219Z,3.01
2023-02-08T06:00:46.326Z,2.99
2023-02-08T06:03:19.147Z,3.01
2023-02-08T06:05:51.870Z,3.01
2023-02-08T06:08:24.527Z,3.04
2023-02-08T06:10:58.843Z,2.98
2023-02-08T06:13:31.814Z,3.01
2023-02-08T06:16:04.410Z,2.97
2023-02-08T06:18:37.097Z,2.94
2023-02-08T06:21:10.034Z,2.98
2023-02-08T06:23:42.739Z,2.98
2023-02-08T06:26:16.846Z,3.02
2023-02-08T06:28:49.599Z,2.94
2023-02-08T06:31:22.527Z,2.99
2023-02-08T06:33:55.329Z,2.97
2023-02-08T06:36:28.257Z,2.97
2023-02-08T06:39:01.065Z,2.96
2023-02-08T06:41:35.102Z,2.96
2023-02-08T06:44:07.880Z,2.97
2023-02-08T06:46:40.553Z,2.91
2023-02-08T06:49:13.309Z,2.92
2023-02-08T06:51:46.098Z,2.89
2023-02-08T06:54:18.848Z,2.89
2023-02-08T06:56:54.508Z,2.77
2023-02-08T06:59:27.280Z,2.80
2023-02-08T07:02:01.307Z,2.84
2023-02-08T07:04:34.270Z,2.75
2023-02-08T07:07:06.944Z,2.82
2023-02-08T07:09:40.362Z,2.82
2023-02-08T07:12:14.472Z,2.76
2023-02-08T07:14:47.401Z,2.84
2023-02-08T07:17:20.074Z,2.81
2023-02-08T07:19:52.878Z,2.72
2023-02-08T07:22:25.452Z,2.74
2023-02-08T07:24:58.218Z,2.78
2023-02-08T07:27:32.233Z,2.75
2023-02-08T07:30:05.778Z,2.76
2023-02-08T07:32:38.459Z,2.69
2023-02-08T07:35:11.335Z,2.71
2023-02-08T07:37:44.045Z,2.70
2023-02-08T07:40:17.102Z,2.67
2023-02-08T07:42:51.351Z,2.64
2023-02-08T07:45:38.755Z,2.70
2023-02-08T07:48:11.712Z,2.64
2023-02-08T07:50:44.473Z,2.67
2023-02-08T07:53:17.826Z,2.67
2023-02-08T07:55:50.567Z,2.66
2023-02-08T07:58:24.757Z,2.66
2023-02-08T08:00:57.982Z,2.64
2023-02-08T08:03:30.758Z,2.71
2023-02-08T08:06:03.593Z,2.65
2023-02-08T08:08:36.249Z,2.63
2023-02-08T08:11:09.337Z,2.60
2023-02-08T08:13:43.770Z,2.63
2023-02-08T08:16:17.223Z,2.66
2023-02-08T08:18:50.782Z,2.63
2023-02-08T08:21:23.634Z,2.58
2023-02-08T08:23:56.388Z,2.56
2023-02-08T08:26:29.796Z,2.61
2023-02-08T08:29:04.014Z,2.64
2023-02-08T08:31:38.540Z,2.72
2023-02-08T08:34:11.414Z,2.80
2023-02-08T08:36:44.524Z,2.84
2023-02-08T08:39:17.314Z,2.83
2023-02-08T08:41:50.139Z,2.90
2023-02-08T08:44:24.160Z,2.97
2023-02-08T08:46:57.852Z,3.03
2023-02-08T08:49:30.658Z,3.02
2023-02-08T08:52:03.528Z,3.07
2023-02-08T08:54:37.656Z,3.14
2023-02-08T08:57:12.053Z,3.14
2023-02-08T08:59:46.659Z,3.21
2023-02-08T09:02:19.586Z,3.23
2023-02-08T09:04:52.470Z,3.21
2023-02-08T09:07:26.036Z,3.22
2023-02-08T09:10:02.104Z,3.24
2023-02-08T09:12:35.161Z,3.32
2023-02-08T09:15:09.920Z,3.24
2023-02-08T09:17:45.817Z,3.30
2023-02-08T09:20:18.781Z,3.30
2023-02-08T09:22:53.247Z,3.40
2023-02-08T09:25:26.588Z,3.40
2023-02-08T09:27:59.571Z,3.43
2023-02-08T09:30:34.888Z,3.45
2023-02-08T09:33:07.719Z,3.51
2023-02-08T09:35:40.548Z,3.55
2023-02-08T09:38:13.494Z,3.55
2023-02-08T09:40:50.512Z,3.57
2023-02-08T09:43:32.922Z,3.62
2023-02-08T09:46:12.502Z,3.64
2023-02-08T09:48:46.948Z,3.72
2023-02-08T09:51:28.072Z,3.67
2023-02-08T09:54:06.145Z,3.76
2023-02-08T09:56:42.331Z,3.79
2023-02-08T09:59:20.324Z,3.77
2023-02-08T10:02:00.267Z,3.82
2023-02-08T10:04:42.393Z,3.86
2023-02-08T10:07:15.165Z,3.89
2023-02-08T10:09:48.014Z,3.93
2023-02-08T10:12:27.068Z,3.96
2023-02-08T10:15:09.122Z,4.03
2023-02-08T10:18:07.174Z,4.05
2023-02-08T10:20:56.639Z,4.12
2023-02-08T10:23:45.114Z,4.19
2023-02-08T10:26:33.141Z,4.23
2023-02-08T10:29:41.461Z,4.29
2023-02-08T10:32:51.199Z,4.39
2023-02-08T10:35:32.165Z,4.54
2023-02-08T10:38:25.248Z,4.53
2023-02-08T10:40:59.804Z,4.57
2023-02-08T10:43:41.792Z,4.75
2023-02-08T10:46:25.467Z,4.79
2023-02-08T10:49:08.394Z,4.93
2023-02-08T10:51:55.210Z,5.10
2023-02-08T10:54:28.637Z,5.32
2023-02-08T10:57:04.633Z,5.36
2023-02-08T10:59:49.301Z,5.38
2023-02-08T11:02:26.486Z,5.64
2023-02-08T11:05:00.879Z,5.57
2023-02-08T11:07:37.557Z,5.80
2023-02-08T11:10:24.200Z,6.02
2023-02-08T11:15:54.075Z,6.22
2023-02-08T11:18:33.482Z,6.28
2023-02-08T11:21:29.498Z,6.25
2023-02-08T11:24:28.090Z,6.30
2023-02-08T11:27:04.372Z,6.58
2023-02-08T11:29:46.205Z,6.59
2023-02-08T11:32:24.102Z,6.74
2023-02-08T11:35:13.416Z,6.89
2023-02-08T11:37:50.137Z,7.10
2023-02-08T11:40:37.849Z,7.14
2023-02-08T11:43:22.670Z,7.25
2023-02-08T11:45:58.296Z,7.35
2023-02-08T11:48:42.152Z,7.53
2023-02-08T11:51:25.150Z,7.57
2023-02-08T11:54:00.602Z,7.66
2023-02-08T11:56:36.075Z,7.76
2023-02-08T11:59:21.086Z,7.93
2023-02-08T12:01:54.066Z,8.01
2023-02-08T12:04:27.618Z,8.11
2023-02-08T12:07:26.600Z,8.08
2023-02-08T12:10:19.869Z,8.15
2023-02-08T12:13:13.649Z,8.41
2023-02-08T12:15:59.177Z,8.61
2023-02-08T12:18:45.428Z,8.57
2023-02-08T12:21:23.096Z,8.68
2023-02-08T12:23:58.651Z,8.72
2023-02-08T12:26:59.956Z,8.80
2023-02-08T12:29:48.348Z,8.71
2023-02-08T12:32:35.816Z,8.85
2023-02-08T12:35:45.734Z,8.92
2023-02-08T12:38:54.104Z,9.01
2023-02-08T12:41:33.188Z,8.88
2023-02-08T12:44:12.886Z,8.97
2023-02-08T12:46:56.528Z,8.86
2023-02-08T12:49:51.206Z,8.91
2023-02-08T12:52:35.229Z,8.93
2023-02-08T12:55:19.954Z,8.97
2023-02-08T12:57:58.336Z,9.01
2023-02-08T13:00:37.246Z,8.88
2023-02-08T13:03:22.050Z,8.94
2023-02-08T13:06:01.975Z,8.92
2023-02-08T13:08:41.248Z,8.92
2023-02-08T13:11:22.008Z,8.71
2023-02-08T13:13:59.910Z,8.78
2023-02-08T13:16:36.993Z,8.75
2023-02-08T13:19:31.873Z,8.63
2023-02-08T13:22:06.105Z,8.58
2023-02-08T13:24:44.512Z,8.40
2023-02-08T13:27:19.588Z,8.41
2023-02-08T13:29:53.703Z,8.34
2023-02-08T13:32:30.222Z,8.30
2023-02-08T13:35:14.058Z,8.30
2023-02-08T13:37:52.783Z,8.28
2023-02-08T13:40:29.276Z,8.22
2023-02-08T13:43:05.306Z,8.17
2023-02-08T13:45:43.391Z,8.02
2023-02-08T13:48:18.882Z,7.92
2023-02-08T13:50:54.822Z,8.00
2023-02-08T13:54:01.180Z,7.91
2023-02-08T13:56:41.315Z,7.83
2023-02-08T13:59:38.536Z,7.79
2023-02-08T14:02:27.164Z,7.78
2023-02-08T14:05:39.852Z,7.72
2023-02-08T14:08:24.002Z,7.47
2023-02-08T14:11:07.868Z,7.57
2023-02-08T14:13:49.068Z,7.57
2023-02-08T14:16:31.846Z,7.46
2023-02-08T14:19:07.603Z,7.41
2023-02-08T14:21:45.785Z,7.44
2023-02-08T14:24:25.998Z,7.36
2023-02-08T14:27:09.600Z,7.40
2023-02-08T14:29:43.058Z,7.40
2023-02-08T14:32:25.361Z,7.23
2023-02-08T14:35:06.824Z,7.27
2023-02-08T14:37:41.216Z,7.14
2023-02-08T14:40:48.147Z,7.11
2023-02-08T14:43:34.859Z,7.14
2023-02-08T14:46:44.930Z,7.10
2023-02-08T14:49:20.244Z,7.13
2023-02-08T14:51:58.953Z,7.02
2023-02-08T14:54:39.646Z,7.05
2023-02-08T14:57:26.087Z,7.08
2023-02-08T15:00:08.349Z,7.11
2023-02-08T15:02:45.539Z,6.97
2023-02-08T15:05:25.423Z,6.96
2023-02-08T15:08:03.929Z,7.02
2023-02-08T15:10:44.847Z,7.04
2023-02-08T15:13:24.301Z,6.88
2023-02-08T15:15:58.518Z,7.00
2023-02-08T15:18:39.708Z,7.00
2023-02-08T15:21:19.178Z,6.99
2023-02-08T15:24:05.530Z,6.93
2023-02-08T15:26:45.015Z,6.92
2023-02-08T15:29:39.149Z,6.82
2023-02-08T15:32:18.746Z,6.82
2023-02-08T15:37:47.727Z,6.82
2023-02-08T15:40:26.385Z,6.87
2023-02-08T15:43:05.558Z,6.77
2023-02-08T15:45:40.320Z,6.68
2023-02-08T15:48:14.370Z,6.79
2023-02-08T15:50:47.698Z,6.80
2023-02-08T15:53:24.386Z,6.70
2023-02-08T15:56:02.027Z,6.78
2023-02-08T15:58:45.273Z,6.62
2023-02-08T16:01:22.181Z,6.74
2023-02-08T16:04:01.820Z,6.68
2023-02-08T16:06:42.083Z,6.69
2023-02-08T16:09:21.454Z,6.70
2023-02-08T16:11:59.317Z,6.66
2023-02-08T16:14:50.672Z,6.67
2023-02-08T16:17:38.674Z,6.64
2023-02-08T16:20:30.153Z,6.62
2023-02-08T16:23:22.930Z,6.57
2023-02-08T16:25:57.756Z,6.67
2023-02-08T16:28:34.954Z,6.61
2023-02-08T16:31:09.115Z,6.54
2023-02-08T16:36:40.944Z,6.55
2023-02-08T16:39:52.784Z,6.53
2023-02-08T16:42:35.970Z,6.50
2023-02-08T16:45:18.099Z,6.57
2023-02-08T16:47:54.084Z,6.51
2023-02-08T16:50:32.304Z,6.51
2023-02-08T16:53:09.081Z,6.57
2023-02-08T16:55:43.708Z,6.54
2023-02-08T16:58:16.847Z,6.49
2023-02-08T17:00:49.773Z,6.46
2023-02-08T17:03:25.372Z,6.39
2023-02-08T17:06:01.705Z,6.50
2023-02-08T17:08:36.307Z,6.45
2023-02-08T17:11:14.489Z,6.40
2023-02-08T17:16:39.920Z,6.48
2023-02-08T17:19:20.239Z,6.37
2023-02-08T17:22:15.724Z,6.34
2023-02-08T17:28:02.394Z,6.36
2023-02-08T17:30:46.244Z,6.36
2023-02-08T17:33:24.397Z,6.37
2023-02-08T17:36:22.739Z,6.36
2023-02-08T17:39:22.888Z,6.38
2023-02-08T17:42:13.731Z,6.33
2023-02-08T17:45:17.232Z,6.31
2023-02-08T17:48:26.821Z,6.28
2023-02-08T17:51:01.323Z,6.21
2023-02-08T17:53:42.352Z,6.19
2023-02-08T17:56:20.520Z,6.17
2023-02-08T17:58:58.425Z,6.16
2023-02-08T18:01:35.065Z,6.13
2023-02-08T18:04:14.595Z,6.15
2023-02-08T18:07:06.048Z,6.15
2023-02-08T18:09:44.686Z,6.11
2023-02-08T18:15:55.086Z,6.15
2023-02-08T18:19:03.653Z,6.14
2023-02-08T18:21:46.722Z,6.14
2023-02-08T18:27:40.930Z,6.11
2023-02-08T18:30:21.696Z,6.10
2023-02-08T18:33:25.450Z,6.03
2023-02-08T18:36:19.937Z,6.09
2023-02-08T18:39:25.281Z,6.04
2023-02-08T18:42:09.444Z,5.95
2023-02-08T18:44:49.670Z,6.01
2023-02-08T18:47:29.710Z,5.98
2023-02-08T18:50:20.907Z,5.95
2023-02-08T18:53:07.577Z,5.96
2023-02-08T18:56:07.115Z,5.93
2023-02-08T18:58:46.862Z,5.95
2023-02-08T19:01:24.436Z,6.00
2023-02-08T19:04:05.416Z,5.99
2023-02-08T19:06:38.850Z,5.98
2023-02-08T19:09:19.485Z,5.88
2023-02-08T19:12:05.684Z,5.96
2023-02-08T19:15:06.857Z,5.94
2023-02-08T19:17:43.801Z,5.89
2023-02-08T19:20:40.131Z,5.89
2023-02-08T19:23:29.069Z,5.86
2023-02-08T19:26:13.296Z,5.82
2023-02-08T19:29:27.402Z,5.80
2023-02-08T19:32:10.856Z,5.83
2023-02-08T19:35:00.888Z,5.74
2023-02-08T19:37:44.354Z,5.73
2023-02-08T19:40:29.342Z,5.65
2023-02-08T19:43:31.765Z,5.63
2023-02-08T19:46:10.769Z,5.62
2023-02-08T19:48:45.224Z,5.61
2023-02-08T19:51:25.027Z,5.69
2023-02-08T19:57:18.923Z,5.65
2023-02-08T19:59:59.384Z,5.68
2023-02-08T20:02:32.952Z,5.68
2023-02-08T20:05:07.775Z,5.70
2023-02-08T20:07:44.776Z,5.70
2023-02-08T20:10:17.748Z,5.66
2023-02-08T20:12:50.959Z,5.63
2023-02-08T20:15:26.544Z,5.55
2023-02-08T20:17:59.741Z,5.50
2023-02-08T20:20:44.376Z,5.54
2023-02-08T20:23:34.918Z,5.44
2023-02-08T20:26:30.892Z,5.38
2023-02-08T20:29:24.315Z,5.49
2023-02-08T20:32:10.101Z,5.36
2023-02-08T20:35:03.195Z,5.43
2023-02-08T20:37:38.324Z,5.36
2023-02-08T20:40:17.160Z,5.33
2023-02-08T20:43:05.158Z,5.36
2023-02-08T20:48:42.272Z,5.33
2023-02-08T20:51:25.889Z,5.40
2023-02-08T20:54:02.146Z,5.37
2023-02-08T20:56:38.263Z,5.30
2023-02-08T20:59:15.911Z,5.28
2023-02-08T21:01:51.263Z,5.24
2023-02-08T21:04:27.253Z,5.30
2023-02-08T21:07:00.528Z,5.30
2023-02-08T21:09:33.852Z,5.34
2023-02-08T21:12:10.277Z,5.30
2023-02-08T21:14:45.690Z,5.30
2023-02-08T21:17:18.752Z,5.22
2023-02-08T21:19:52.079Z,5.24
2023-02-08T21:22:26.603Z,5.19
2023-02-08T21:25:01.215Z,5.13
2023-02-08T21:27:37.613Z,5.11
2023-02-08T21:30:11.626Z,5.20
2023-02-08T21:32:44.474Z,5.12
2023-02-08T21:35:17.656Z,5.07
2023-02-08T21:37:50.556Z,5.09
2023-02-08T21:40:23.141Z,5.08
2023-02-08T21:42:59.343Z,5.05
2023-02-08T21:45:35.094Z,5.09
2023-02-08T21:48:07.905Z,5.00
2023-02-08T21:50:57.910Z,4.94
2023-02-08T21:53:50.260Z,5.09
2023-02-08T21:56:23.357Z,5.02
2023-02-08T21:58:57.980Z,4.92
2023-02-08T22:01:31.553Z,4.90
2023-02-08T22:04:04.748Z,4.86
2023-02-08T22:06:37.872Z,4.93
2023-02-08T22:09:10.984Z,4.92
2023-02-08T22:11:46.067Z,4.87
2023-02-08T22:14:20.636Z,4.80
2023-02-08T22:16:53.709Z,4.72
2023-02-08T22:19:29.151Z,4.77
2023-02-08T22:22:02.459Z,4.72
2023-02-08T22:24:36.113Z,4.70
2023-02-08T22:27:08.819Z,4.68
2023-02-08T22:29:43.530Z,4.63
2023-02-08T22:32:17.297Z,4.68
2023-02-08T22:34:50.451Z,4.65
2023-02-08T22:37:23.530Z,4.53
2023-02-08T22:39:56.348Z,4.63
2023-02-08T22:42:29.111Z,4.58
2023-02-08T22:45:03.208Z,4.53
2023-02-08T22:47:36.674Z,4.53
2023-02-08T22:50:10.572Z,4.63
2023-02-08T22:52:43.346Z,4.50
2023-02-08T22:55:16.057Z,4.68
2023-02-08T22:57:48.777Z,4.60
2023-02-08T23:00:23.269Z,4.51
2023-02-08T23:02:56.200Z,4.49
2023-02-08T23:05:28.772Z,4.53
2023-02-08T23:08:01.617Z,4.43
2023-02-08T23:10:34.526Z,4.40
2023-02-08T23:13:07.551Z,4.44
2023-02-08T23:15:44.066Z,4.37
2023-02-08T23:18:16.773Z,4.40
2023-02-08T23:20:50.044Z,4.48
2023-02-08T23:23:23.499Z,4.31
2023-02-08T23:25:56.226Z,4.39
2023-02-08T23:28:28.977Z,4.35
2023-02-08T23:31:05.418Z,4.25
2023-02-08T23:33:39.340Z,4.39
2023-02-08T23:36:15.060Z,4.31
2023-02-08T23:38:48.351Z,4.28
2023-02-08T23:41:23.321Z,4.31
2023-02-08T23:43:56.031Z,4.37
2023-02-08T23:46:30.827Z,4.30
2023-02-08T23:49:03.719Z,4.17
2023-02-08T23:51:36.351Z,4.18
2023-02-08T23:54:09.303Z,4.11
2023-02-08T23:56:42.089Z,4.12
2023-02-08T23:59:14.798Z,4.03
